Time;durP1;ratioP1;P1;durP2;ratioP2;P2;SDS_P1;SDS_P2;PMS_P1;PMS_P2;Temp;Humidity;BMP_temperature;BMP_pressure;BME280_temperature;BME280_humidity;BME280_pressure;Samples;Min_cycle;Max_cycle;Signal;HPM_P1;HPM_P2
2023/05/26 00:01:31;;;;;;;11.93;4.50;;;19.60;78.30;;;;;;5055714;28;20501;-84
2023/05/26 00:03:59;;;;;;;14.60;5.63;;;19.60;78.30;;;;;;5076612;28;20425;-84
2023/05/26 00:06:25;;;;;;;15.30;5.27;;;19.50;78.10;;;;;;5042462;28;20404;-84
2023/05/26 00:08:59;;;;;;;14.97;5.30;;;19.50;78.10;;;;;;5042856;28;20886;-85
2023/05/26 00:11:28;;;;;;;9.40;4.37;;;19.50;78.10;;;;;;5058994;28;21021;-84
2023/05/26 00:13:57;;;;;;;11.57;4.77;;;19.50;78.10;;;;;;5076413;28;20429;-84
2023/05/26 00:16:23;;;;;;;12.90;4.87;;;19.50;78.20;;;;;;5075461;28;20454;-85
2023/05/26 00:18:51;;;;;;;12.23;5.23;;;19.50;78.20;;;;;;5042730;28;20430;-85
2023/05/26 00:21:17;;;;;;;8.53;3.80;;;19.50;78.20;;;;;;5042463;28;20423;-85
2023/05/26 00:23:45;;;;;;;10.17;4.50;;;19.40;78.00;;;;;;5058724;28;20784;-85
2023/05/26 00:26:11;;;;;;;12.53;4.80;;;19.50;78.10;;;;;;5042536;28;20980;-84
2023/05/26 00:28:38;;;;;;;13.53;4.90;;;19.40;78.10;;;;;;5038949;28;20438;-84
2023/05/26 00:31:07;;;;;;;11.73;5.23;;;19.40;78.10;;;;;;5051504;28;20465;-85
2023/05/26 00:33:33;;;;;;;13.83;4.40;;;19.40;78.10;;;;;;5042190;28;20418;-84
2023/05/26 00:36:02;;;;;;;8.30;4.10;;;19.40;78.10;;;;;;5041930;28;20767;-84
2023/05/26 00:38:28;;;;;;;11.00;4.20;;;19.40;78.10;;;;;;5075907;28;20176;-84
2023/05/26 00:40:57;;;;;;;14.70;5.07;;;19.30;78.00;;;;;;5075986;28;20429;-84
2023/05/26 00:43:25;;;;;;;9.03;4.17;;;19.30;78.00;;;;;;5058615;28;20200;-84
2023/05/26 00:45:53;;;;;;;10.13;4.30;;;19.30;78.10;;;;;;5058270;28;20887;-84
2023/05/26 00:48:20;;;;;;;14.53;4.43;;;19.30;78.00;;;;;;5058157;28;20444;-84
2023/05/26 00:50:46;;;;;;;12.83;5.20;;;19.30;78.00;;;;;;5075567;28;20820;-84
2023/05/26 00:53:12;;;;;;;13.00;3.77;;;19.30;78.00;;;;;;5075749;28;20417;-83
2023/05/26 00:55:40;;;;;;;11.63;4.40;;;19.20;77.70;;;;;;5041886;28;20522;-84
2023/05/26 00:58:09;;;;;;;11.27;3.83;;;19.20;78.60;;;;;;5057410;28;20942;-84
2023/05/26 01:00:36;;;;;;;9.30;4.20;;;19.20;77.80;;;;;;5041212;28;21107;-85
2023/05/26 01:03:04;;;;;;;9.83;4.53;;;19.20;77.90;;;;;;5058026;28;20891;-84
2023/05/26 01:05:30;;;;;;;11.50;4.90;;;19.20;77.90;;;;;;5058162;28;20423;-84
2023/05/26 01:07:56;;;;;;;11.90;4.77;;;19.20;77.80;;;;;;5075301;28;20782;-85
2023/05/26 01:10:23;;;;;;;10.57;4.50;;;19.20;77.90;;;;;;5075374;28;20506;-84
2023/05/26 01:13:07;;;;;;;9.43;4.13;;;19.10;77.70;;;;;;5057733;28;20483;-84
2023/05/26 01:15:42;;;;;;;13.40;4.70;;;19.10;77.70;;;;;;5074504;28;20409;-85
2023/05/26 01:18:28;;;;;;;10.13;4.33;;;19.10;77.60;;;;;;5075157;28;20772;-84
2023/05/26 01:20:57;;;;;;;18.63;4.50;;;19.10;77.70;;;;;;5057839;28;20489;-84
2023/05/26 01:23:46;;;;;;;15.63;4.97;;;19.10;77.70;;;;;;5041681;28;20444;-84
2023/05/26 01:26:34;;;;;;;16.07;4.67;;;19.00;78.50;;;;;;5057907;28;20462;-85
2023/05/26 01:29:14;;;;;;;18.10;4.30;;;19.00;77.70;;;;;;5024531;28;20473;-85
2023/05/26 01:31:43;;;;;;;10.90;4.40;;;19.00;77.70;;;;;;5057440;28;20880;-85
2023/05/26 01:34:09;;;;;;;8.90;3.90;;;19.00;77.80;;;;;;5024242;28;20892;-85
2023/05/26 01:36:38;;;;;;;9.80;4.23;;;19.00;77.70;;;;;;5057868;28;20431;-85
2023/05/26 01:39:11;;;;;;;19.00;4.67;;;19.00;77.70;;;;;;5041212;28;20437;-85
2023/05/26 01:42:30;;;;;;;12.40;4.53;;;19.00;77.70;;;;;;5057290;28;20731;-84
2023/05/26 01:45:04;;;;;;;10.83;4.30;;;19.00;77.70;;;;;;5041497;28;20461;-84
2023/05/26 01:47:35;;;;;;;11.80;4.13;;;19.00;77.70;;;;;;5040896;28;20409;-84
2023/05/26 01:50:07;;;;;;;9.23;4.80;;;18.90;77.60;;;;;;5057466;28;20449;-84
2023/05/26 01:52:35;;;;;;;11.17;4.30;;;18.90;77.60;;;;;;5074104;28;21043;-84
2023/05/26 01:55:07;;;;;;;11.47;3.80;;;18.90;77.60;;;;;;5057382;28;20426;-85
2023/05/26 01:57:35;;;;;;;8.20;3.40;;;18.90;77.60;;;;;;5040806;28;20486;-85
2023/05/26 02:00:03;;;;;;;10.73;3.70;;;18.80;77.60;;;;;;5057296;28;20472;-85
2023/05/26 02:02:40;;;;;;;12.80;4.40;;;18.80;77.60;;;;;;5058942;28;20461;-85
2023/05/26 02:05:07;;;;;;;10.43;3.90;;;18.80;77.60;;;;;;5057293;28;20405;-85
2023/05/26 02:07:34;;;;;;;8.97;4.40;;;18.80;77.60;;;;;;5057197;28;20418;-84
2023/05/26 02:10:02;;;;;;;12.00;4.13;;;18.80;77.60;;;;;;5059238;28;20456;-85
2023/05/26 02:12:27;;;;;;;11.97;4.60;;;18.80;77.60;;;;;;5044643;28;20465;-84
2023/05/26 02:14:56;;;;;;;11.77;3.67;;;18.80;78.30;;;;;;5044494;28;20417;-85
2023/05/26 02:17:23;;;;;;;8.93;4.00;;;18.70;78.20;;;;;;5061191;28;20786;-84
2023/05/26 02:19:54;;;;;;;15.90;4.53;;;18.80;77.50;;;;;;5028657;28;20454;-84
2023/05/26 02:22:20;;;;;;;10.43;4.63;;;18.70;77.40;;;;;;5077745;28;20815;-84
2023/05/26 02:24:49;;;;;;;9.47;4.40;;;18.70;77.40;;;;;;5044792;28;20422;-85
2023/05/26 02:27:15;;;;;;;10.93;3.70;;;18.70;77.50;;;;;;5078505;28;20428;-85
2023/05/26 02:29:41;;;;;;;10.63;3.83;;;18.70;77.40;;;;;;5044182;28;20448;-84
2023/05/26 02:32:07;;;;;;;10.97;3.60;;;18.70;77.50;;;;;;5060779;28;20517;-84
2023/05/26 02:34:33;;;;;;;9.50;3.73;;;18.70;77.50;;;;;;5043961;28;20453;-84
2023/05/26 02:36:59;;;;;;;14.07;4.03;;;18.70;77.50;;;;;;5060812;28;20291;-84
2023/05/26 02:39:27;;;;;;;12.53;3.43;;;18.60;77.30;;;;;;5060746;28;20176;-84
2023/05/26 02:41:56;;;;;;;10.40;4.20;;;18.60;77.40;;;;;;5060555;28;20805;-84
2023/05/26 02:44:21;;;;;;;10.17;3.70;;;18.60;77.40;;;;;;5027774;28;20202;-85
2023/05/26 02:46:47;;;;;;;10.17;4.13;;;18.60;77.40;;;;;;5077835;28;20453;-85
2023/05/26 02:49:20;;;;;;;9.33;3.43;;;18.60;77.40;;;;;;5060402;28;20500;-84
2023/05/26 02:51:48;;;;;;;9.70;4.07;;;18.50;77.40;;;;;;5044013;28;20844;-85
2023/05/26 02:54:14;;;;;;;11.43;3.93;;;18.60;77.50;;;;;;5044251;28;20439;-85
2023/05/26 02:56:40;;;;;;;13.30;4.17;;;18.50;77.40;;;;;;5043756;28;20416;-85
2023/05/26 02:59:08;;;;;;;13.93;4.60;;;18.50;77.30;;;;;;5060313;28;20438;-85
2023/05/26 03:01:35;;;;;;;14.83;3.90;;;18.50;77.40;;;;;;5043666;28;20184;-84
2023/05/26 03:04:01;;;;;;;11.97;3.73;;;18.50;77.40;;;;;;5060367;28;20425;-84
2023/05/26 03:06:27;;;;;;;13.47;4.43;;;18.50;77.30;;;;;;5060012;28;20490;-85
2023/05/26 03:08:53;;;;;;;10.50;3.93;;;18.50;77.40;;;;;;5043772;28;20444;-85
2023/05/26 03:11:22;;;;;;;8.80;3.90;;;18.40;77.30;;;;;;5059972;28;20464;-85
2023/05/26 03:13:47;;;;;;;12.80;4.63;;;18.40;77.30;;;;;;5043509;28;20827;-85
2023/05/26 03:16:16;;;;;;;9.70;4.20;;;18.40;77.30;;;;;;5044072;28;20186;-84
2023/05/26 03:18:44;;;;;;;9.83;4.03;;;18.40;77.40;;;;;;5043223;28;20937;-85
2023/05/26 03:21:10;;;;;;;8.20;3.93;;;18.40;77.40;;;;;;5042530;28;20433;-85
2023/05/26 03:23:43;;;;;;;17.67;4.87;;;18.40;77.50;;;;;;5043691;28;20428;-85
2023/05/26 03:26:10;;;;;;;13.07;4.17;;;18.40;77.50;;;;;;5076502;28;20485;-84
2023/05/26 03:28:37;;;;;;;9.43;4.10;;;18.30;77.40;;;;;;5043225;28;20436;-85
2023/05/26 03:31:09;;;;;;;10.77;3.90;;;18.30;77.40;;;;;;5043192;28;20469;-84
2023/05/26 03:33:38;;;;;;;9.17;5.03;;;18.30;77.40;;;;;;5043860;28;20485;-85
2023/05/26 03:36:06;;;;;;;12.07;5.30;;;18.30;77.50;;;;;;5059535;28;20527;-84
2023/05/26 03:38:35;;;;;;;10.00;4.27;;;18.30;77.50;;;;;;5059648;28;20471;-85
2023/05/26 03:41:02;;;;;;;8.73;3.87;;;18.20;77.40;;;;;;5026743;28;20422;-86
2023/05/26 03:43:30;;;;;;;14.70;4.43;;;18.30;77.60;;;;;;5059299;28;20545;-85
2023/05/26 03:45:56;;;;;;;9.70;4.27;;;18.20;77.50;;;;;;5043104;28;20429;-85
2023/05/26 03:48:22;;;;;;;8.47;4.30;;;18.20;77.50;;;;;;5026239;28;20432;-85
2023/05/26 03:50:48;;;;;;;11.50;4.10;;;18.20;77.50;;;;;;5026384;28;20424;-85
2023/05/26 03:53:14;;;;;;;16.07;4.73;;;18.20;77.50;;;;;;5042954;28;20420;-85
2023/05/26 03:55:41;;;;;;;13.83;3.60;;;18.10;77.50;;;;;;5042978;28;20445;-86
2023/05/26 03:58:07;;;;;;;11.13;4.90;;;18.20;77.60;;;;;;5059222;28;20515;-84
2023/05/26 04:00:33;;;;;;;12.60;4.37;;;18.10;77.60;;;;;;5042651;28;20748;-85
2023/05/26 04:03:00;;;;;;;10.80;4.03;;;18.10;77.70;;;;;;5059205;28;20859;-84
2023/05/26 04:05:26;;;;;;;15.30;3.67;;;18.10;77.80;;;;;;5042439;28;20416;-84
2023/05/26 04:07:59;;;;;;;10.67;4.10;;;18.10;77.80;;;;;;5042553;28;20453;-85
2023/05/26 04:10:26;;;;;;;12.90;3.87;;;18.10;77.80;;;;;;5026396;28;20419;-85
2023/05/26 04:12:55;;;;;;;11.27;4.13;;;18.10;77.80;;;;;;5058874;28;20559;-85
2023/05/26 04:15:23;;;;;;;13.30;5.23;;;18.00;77.70;;;;;;5042684;28;20502;-85
2023/05/26 04:17:50;;;;;;;16.60;4.53;;;18.00;77.70;;;;;;5042307;28;20480;-84
2023/05/26 04:20:20;;;;;;;12.33;4.60;;;18.00;77.70;;;;;;5042406;28;20444;-83
2023/05/26 04:22:49;;;;;;;11.43;4.20;;;18.00;77.80;;;;;;5042337;28;20430;-84
2023/05/26 04:25:18;;;;;;;15.90;5.53;;;18.00;77.80;;;;;;5042207;28;20443;-85
2023/05/26 04:27:52;;;;;;;12.63;5.13;;;18.00;77.90;;;;;;5058872;28;20425;-87
2023/05/26 04:30:42;;;;;;;12.57;4.40;;;18.00;78.00;;;;;;5045316;28;20446;-83
2023/05/26 04:33:23;;;;;;;17.33;3.93;;;17.90;78.00;;;;;;5058440;28;20967;-84
2023/05/26 04:36:03;;;;;;;14.10;4.97;;;17.90;78.00;;;;;;5043909;28;20424;-84
2023/05/26 04:38:32;;;;;;;15.23;4.40;;;17.90;78.00;;;;;;5059026;28;20495;-84
2023/05/26 04:40:58;;;;;;;11.80;4.17;;;17.80;78.00;;;;;;5058485;28;20505;-84
2023/05/26 04:43:26;;;;;;;15.60;5.10;;;17.80;78.10;;;;;;5058166;28;20205;-85
2023/05/26 04:45:55;;;;;;;11.77;4.30;;;17.80;78.10;;;;;;5041582;28;20501;-84
2023/05/26 04:48:21;;;;;;;12.43;4.73;;;17.80;78.20;;;;;;5041859;28;20468;-85
2023/05/26 04:50:47;;;;;;;12.27;4.83;;;17.80;78.20;;;;;;5058215;28;20459;-84
2023/05/26 04:53:15;;;;;;;17.07;4.67;;;17.80;78.30;;;;;;5025855;28;20195;-84
2023/05/26 04:55:44;;;;;;;13.23;5.43;;;17.80;78.30;;;;;;5058205;28;20424;-86
2023/05/26 04:58:11;;;;;;;13.03;4.77;;;17.80;78.40;;;;;;5041713;28;20535;-84
2023/05/26 05:00:37;;;;;;;13.30;5.50;;;17.80;78.40;;;;;;5025227;28;20426;-85
2023/05/26 05:03:26;;;;;;;11.83;4.67;;;17.70;78.30;;;;;;5058086;28;20432;-84
2023/05/26 05:06:05;;;;;;;11.67;4.80;;;17.70;78.30;;;;;;5058012;28;20408;-84
2023/05/26 05:08:34;;;;;;;12.27;5.37;;;17.70;78.40;;;;;;5058075;28;20490;-85
2023/05/26 05:11:03;;;;;;;13.87;5.57;;;17.70;78.50;;;;;;5074287;28;20472;-86
2023/05/26 05:13:33;;;;;;;15.47;5.50;;;17.60;78.40;;;;;;5057910;28;20412;-84
2023/05/26 05:16:00;;;;;;;17.40;5.57;;;17.60;78.40;;;;;;5074342;28;20408;-84
2023/05/26 05:18:28;;;;;;;13.10;5.27;;;17.60;78.50;;;;;;5057729;28;20489;-84
2023/05/26 05:20:57;;;;;;;11.97;4.50;;;17.60;78.50;;;;;;5057958;28;20400;-84
2023/05/26 05:23:23;;;;;;;12.50;5.23;;;17.60;78.50;;;;;;5024531;28;20466;-86
2023/05/26 05:25:52;;;;;;;14.53;5.37;;;17.60;78.60;;;;;;5024881;28;20447;-85
2023/05/26 05:28:19;;;;;;;15.70;6.00;;;17.60;78.60;;;;;;5024812;28;20417;-85
2023/05/26 05:31:05;;;;;;;19.10;6.83;;;17.60;78.70;;;;;;5050384;28;20476;-85
2023/05/26 05:33:34;;;;;;;15.17;6.00;;;17.60;78.70;;;;;;5040955;28;20452;-84
2023/05/26 05:36:00;;;;;;;15.10;5.63;;;17.60;78.70;;;;;;5024549;28;20457;-84
2023/05/26 05:38:31;;;;;;;17.90;6.07;;;17.50;78.70;;;;;;5074108;28;20542;-84
2023/05/26 05:40:57;;;;;;;20.03;5.90;;;17.50;78.70;;;;;;5040867;28;20494;-85
2023/05/26 05:43:23;;;;;;;17.70;6.50;;;17.50;78.70;;;;;;5040766;28;20543;-84
2023/05/26 05:45:52;;;;;;;15.73;6.10;;;17.50;78.80;;;;;;5040568;28;20504;-85
2023/05/26 05:48:42;;;;;;;14.13;6.00;;;17.50;78.80;;;;;;5043352;28;20935;-83
2023/05/26 05:51:12;;;;;;;20.93;6.80;;;17.50;78.80;;;;;;5057273;28;20797;-85
2023/05/26 05:53:39;;;;;;;11.17;5.23;;;17.50;78.90;;;;;;5040705;28;20511;-85
2023/05/26 05:56:06;;;;;;;22.00;7.50;;;17.50;78.90;;;;;;5040946;28;20397;-84
2023/05/26 05:58:33;;;;;;;11.73;6.17;;;17.50;79.00;;;;;;5057234;28;20424;-84
2023/05/26 06:00:59;;;;;;;17.83;6.37;;;17.50;79.00;;;;;;5028455;28;20775;-84
2023/05/26 06:03:28;;;;;;;15.87;5.80;;;17.50;79.00;;;;;;5020817;28;20434;-85
2023/05/26 06:05:54;;;;;;;14.70;6.10;;;17.40;78.90;;;;;;5020642;28;20429;-86
2023/05/26 06:08:22;;;;;;;16.33;7.30;;;17.50;79.10;;;;;;5037228;28;20423;-85
2023/05/26 06:10:50;;;;;;;12.30;5.30;;;17.50;79.10;;;;;;5021114;28;20421;-85
2023/05/26 06:13:16;;;;;;;13.37;5.70;;;17.40;79.00;;;;;;5036942;28;20495;-84
2023/05/26 06:15:42;;;;;;;14.13;6.60;;;17.40;79.10;;;;;;5037096;28;20414;-84
2023/05/26 06:18:10;;;;;;;16.50;5.83;;;17.40;79.10;;;;;;5037522;28;20413;-85
2023/05/26 06:20:36;;;;;;;12.87;5.80;;;17.40;79.10;;;;;;5037244;28;20823;-85
2023/05/26 06:23:04;;;;;;;12.07;5.57;;;17.40;79.10;;;;;;5037197;28;20233;-85
2023/05/26 06:25:33;;;;;;;11.43;5.50;;;17.40;79.20;;;;;;5020742;28;20445;-83
2023/05/26 06:27:59;;;;;;;11.93;5.53;;;17.40;79.20;;;;;;5016789;28;20966;-85
2023/05/26 06:30:25;;;;;;;12.13;5.53;;;17.40;79.20;;;;;;5015604;28;20422;-86
2023/05/26 06:33:01;;;;;;;12.80;5.37;;;17.30;79.20;;;;;;5056961;28;20837;-85
2023/05/26 06:35:27;;;;;;;14.70;6.80;;;17.30;79.20;;;;;;5040725;28;20449;-85
2023/05/26 06:37:53;;;;;;;20.57;6.73;;;17.40;79.30;;;;;;5056826;28;20443;-86
2023/05/26 06:40:21;;;;;;;15.10;6.30;;;17.30;79.20;;;;;;5024779;28;20804;-84
2023/05/26 06:42:49;;;;;;;19.60;6.03;;;17.30;79.30;;;;;;5056945;28;20429;-85
2023/05/26 06:45:15;;;;;;;14.87;5.43;;;17.30;79.30;;;;;;5040384;28;20445;-85
2023/05/26 06:47:41;;;;;;;14.07;5.57;;;17.40;79.50;;;;;;5023717;28;20809;-84
2023/05/26 06:50:11;;;;;;;17.30;6.37;;;17.30;79.40;;;;;;5057098;28;20455;-85
2023/05/26 06:52:37;;;;;;;13.17;6.07;;;17.30;79.50;;;;;;5040441;28;20510;-85
2023/05/26 06:55:03;;;;;;;13.23;5.40;;;17.40;79.60;;;;;;5040240;28;20450;-85
2023/05/26 06:57:32;;;;;;;14.00;6.10;;;17.30;79.60;;;;;;5026531;28;20224;-84
2023/05/26 06:59:58;;;;;;;14.10;5.03;;;17.30;79.60;;;;;;5043802;28;20511;-84
2023/05/26 07:02:26;;;;;;;13.30;5.77;;;17.30;79.60;;;;;;5044064;28;20554;-85
2023/05/26 07:05:05;;;;;;;14.17;5.97;;;17.40;79.70;;;;;;5043712;28;20514;-83
2023/05/26 07:07:31;;;;;;;16.87;6.20;;;17.30;79.60;;;;;;5043662;28;20436;-84
2023/05/26 07:10:00;;;;;;;13.00;5.40;;;17.40;79.70;;;;;;5060250;28;20467;-84
2023/05/26 07:12:26;;;;;;;14.50;6.57;;;17.40;79.70;;;;;;5043605;28;20464;-85
2023/05/26 07:14:53;;;;;;;14.53;5.60;;;17.40;80.50;;;;;;5043685;28;20463;-84
2023/05/26 07:17:19;;;;;;;13.50;5.40;;;17.40;79.70;;;;;;5043561;28;20424;-85
2023/05/26 07:19:50;;;;;;;11.80;5.63;;;17.40;79.70;;;;;;5043844;28;20733;-84
2023/05/26 07:22:16;;;;;;;17.50;5.67;;;17.40;79.60;;;;;;5060094;28;20489;-84
2023/05/26 07:24:59;;;;;;;14.20;6.20;;;17.40;79.60;;;;;;5043643;28;20499;-85
2023/05/26 07:27:31;;;;;;;15.33;5.27;;;17.40;79.60;;;;;;5043537;28;20449;-85
2023/05/26 07:29:59;;;;;;;12.67;5.30;;;17.40;79.70;;;;;;5036449;28;20805;-84
2023/05/26 07:32:25;;;;;;;16.50;6.03;;;17.40;79.60;;;;;;5019859;28;20511;-84
2023/05/26 07:34:51;;;;;;;15.40;5.60;;;17.40;79.60;;;;;;5020013;28;20558;-83
2023/05/26 07:37:25;;;;;;;18.27;6.13;;;17.40;79.60;;;;;;5019933;28;20430;-83
2023/05/26 07:39:50;;;;;;;13.47;5.90;;;17.40;79.60;;;;;;5036678;28;20395;-83
2023/05/26 07:42:16;;;;;;;12.43;5.50;;;17.40;79.60;;;;;;5037279;28;20430;-85
2023/05/26 07:44:44;;;;;;;13.87;5.10;;;17.50;79.60;;;;;;5019926;28;20790;-83
2023/05/26 07:47:13;;;;;;;14.37;5.10;;;17.50;79.70;;;;;;5019900;28;20713;-83
2023/05/26 07:49:39;;;;;;;15.07;5.00;;;17.50;79.60;;;;;;5036388;28;20460;-83
2023/05/26 07:52:05;;;;;;;9.57;5.03;;;17.50;79.60;;;;;;5019742;28;20839;-84
2023/05/26 07:54:33;;;;;;;17.30;6.40;;;17.50;79.60;;;;;;5019919;28;20459;-83
2023/05/26 07:56:59;;;;;;;12.73;5.00;;;17.50;79.60;;;;;;5019677;28;20441;-84
2023/05/26 07:59:27;;;;;;;9.70;5.00;;;17.50;79.60;;;;;;5019748;28;20194;-86
2023/05/26 08:01:55;;;;;;;19.50;5.90;;;17.50;79.60;;;;;;5019643;28;20444;-85
2023/05/26 08:04:21;;;;;;;18.47;5.73;;;17.50;79.60;;;;;;5003513;28;20470;-84
2023/05/26 08:06:50;;;;;;;13.30;6.33;;;17.60;79.70;;;;;;5036724;28;20453;-84
2023/05/26 08:09:16;;;;;;;11.73;4.80;;;17.60;79.70;;;;;;5036828;28;20758;-84
2023/05/26 08:11:44;;;;;;;11.43;5.03;;;17.60;79.70;;;;;;5035692;28;20471;-85
2023/05/26 08:14:12;;;;;;;13.03;4.50;;;17.60;79.60;;;;;;5019279;28;20446;-84
2023/05/26 08:16:38;;;;;;;11.37;5.57;;;17.60;79.60;;;;;;5019373;28;20450;-84
2023/05/26 08:19:05;;;;;;;14.77;5.53;;;17.60;79.60;;;;;;5035672;28;20419;-84
2023/05/26 08:21:33;;;;;;;15.33;5.93;;;17.60;79.70;;;;;;5019805;28;20441;-83
2023/05/26 08:24:00;;;;;;;12.00;4.90;;;17.70;79.80;;;;;;5003055;28;20504;-84
2023/05/26 08:26:26;;;;;;;12.30;4.70;;;17.70;79.80;;;;;;5019204;28;20199;-87
2023/05/26 08:28:52;;;;;;;11.73;5.10;;;17.70;79.80;;;;;;5035380;28;20477;-83
2023/05/26 08:31:20;;;;;;;9.57;4.50;;;17.70;79.80;;;;;;5017202;28;20473;-84
2023/05/26 08:33:46;;;;;;;10.13;4.80;;;17.70;79.80;;;;;;5022629;28;20512;-85
2023/05/26 08:36:12;;;;;;;10.90;4.83;;;17.80;79.80;;;;;;5038676;28;20561;-84
2023/05/26 08:38:40;;;;;;;11.63;4.37;;;17.80;79.90;;;;;;5022490;28;20403;-85
2023/05/26 08:41:10;;;;;;;11.53;5.07;;;17.80;79.80;;;;;;5022293;28;20460;-84
2023/05/26 08:43:46;;;;;;;13.40;4.90;;;17.80;79.80;;;;;;5022410;28;20533;-86
2023/05/26 08:46:12;;;;;;;11.93;4.47;;;17.80;79.80;;;;;;5022361;28;20508;-85
2023/05/26 08:48:39;;;;;;;13.37;4.50;;;17.90;79.90;;;;;;5022264;28;20977;-84
2023/05/26 08:51:09;;;;;;;17.60;5.47;;;17.90;79.90;;;;;;5038353;28;20513;-83
2023/05/26 08:53:39;;;;;;;19.33;5.93;;;17.90;79.90;;;;;;5021999;28;20441;-83
2023/05/26 08:56:09;;;;;;;14.00;4.80;;;17.90;79.80;;;;;;5055688;28;20889;-83
2023/05/26 08:58:38;;;;;;;12.87;4.93;;;17.90;79.80;;;;;;5038336;28;20530;-84
2023/05/26 09:01:04;;;;;;;15.90;5.10;;;18.00;79.90;;;;;;5038542;28;20429;-84
2023/05/26 09:03:32;;;;;;;10.73;4.60;;;18.00;79.90;;;;;;5055570;28;20449;-83
2023/05/26 09:05:58;;;;;;;11.07;5.53;;;18.00;79.90;;;;;;5038156;28;20465;-83
2023/05/26 09:08:24;;;;;;;15.27;4.80;;;18.00;79.90;;;;;;5021882;28;20187;-82
2023/05/26 09:10:50;;;;;;;14.17;5.40;;;18.00;79.90;;;;;;5038306;28;20514;-86
2023/05/26 09:13:20;;;;;;;14.37;5.50;;;18.10;80.10;;;;;;5038037;28;20417;-84
2023/05/26 09:15:51;;;;;;;8.60;4.60;;;18.10;80.00;;;;;;5055593;28;20473;-83
2023/05/26 09:18:18;;;;;;;12.67;4.50;;;18.10;79.90;;;;;;5037850;28;20421;-85
2023/05/26 09:20:46;;;;;;;14.47;5.10;;;18.20;79.90;;;;;;5037484;28;20517;-85
2023/05/26 09:23:15;;;;;;;10.30;4.30;;;18.20;79.80;;;;;;5037813;28;20856;-82
2023/05/26 09:25:49;;;;;;;13.20;5.27;;;18.20;79.80;;;;;;5055419;28;20415;-82
2023/05/26 09:28:15;;;;;;;11.37;4.90;;;18.20;79.70;;;;;;5037942;28;20499;-83
2023/05/26 09:30:46;;;;;;;11.13;4.47;;;18.20;79.70;;;;;;5021167;28;20821;-83
2023/05/26 09:33:19;;;;;;;12.50;4.57;;;18.30;79.80;;;;;;5037723;28;20442;-84
2023/05/26 09:35:46;;;;;;;16.07;5.20;;;18.30;79.80;;;;;;5021339;28;20449;-84
2023/05/26 09:38:15;;;;;;;10.40;4.90;;;18.40;79.80;;;;;;5004767;28;20462;-83
2023/05/26 09:40:48;;;;;;;13.13;5.17;;;18.40;79.80;;;;;;5055075;28;20398;-83
2023/05/26 09:43:19;;;;;;;13.00;4.40;;;18.40;79.80;;;;;;5037532;28;20462;-82
2023/05/26 09:45:45;;;;;;;16.77;5.50;;;18.50;80.00;;;;;;5037470;28;20781;-83
2023/05/26 09:48:14;;;;;;;12.10;4.80;;;18.50;79.80;;;;;;5028360;28;20417;-83
2023/05/26 09:50:42;;;;;;;10.10;4.63;;;18.50;79.80;;;;;;5057628;28;20728;-82
2023/05/26 09:53:10;;;;;;;13.30;4.40;;;18.60;79.90;;;;;;5024162;28;20523;-85
2023/05/26 09:55:38;;;;;;;13.03;4.97;;;18.60;80.60;;;;;;5024363;28;20445;-85
2023/05/26 09:58:10;;;;;;;8.77;4.17;;;18.60;79.80;;;;;;5075175;28;20422;-84
2023/05/26 10:00:40;;;;;;;12.13;4.93;;;18.70;79.80;;;;;;5040456;28;20446;-85
2023/05/26 10:03:07;;;;;;;11.50;4.37;;;18.70;79.80;;;;;;5057197;28;20421;-83
2023/05/26 10:05:36;;;;;;;12.90;4.37;;;18.80;79.80;;;;;;5057283;28;20521;-87
2023/05/26 10:08:05;;;;;;;14.30;5.73;;;18.80;79.60;;;;;;5057516;28;20513;-85
2023/05/26 10:10:32;;;;;;;11.03;5.40;;;18.80;79.50;;;;;;5057492;28;20422;-84
2023/05/26 10:12:58;;;;;;;16.00;5.50;;;18.90;79.50;;;;;;5056748;28;20477;-84
2023/05/26 10:15:25;;;;;;;9.00;4.20;;;18.90;79.50;;;;;;5057048;28;20488;-86
2023/05/26 10:17:51;;;;;;;14.63;5.37;;;18.90;79.40;;;;;;5040905;28;20446;-83
2023/05/26 10:20:18;;;;;;;12.07;5.27;;;18.90;79.30;;;;;;5057483;28;20464;-84
2023/05/26 10:22:55;;;;;;;12.60;5.33;;;19.00;79.30;;;;;;5074812;28;20434;-84
2023/05/26 10:25:26;;;;;;;12.60;4.60;;;19.00;79.20;;;;;;5024335;28;20449;-86
2023/05/26 10:28:11;;;;;;;14.23;5.07;;;19.10;79.30;;;;;;5040478;28;20414;-84
2023/05/26 10:30:41;;;;;;;12.80;5.00;;;19.10;79.30;;;;;;5041982;28;20452;-84
2023/05/26 10:33:12;;;;;;;11.63;4.50;;;19.10;79.10;;;;;;5044169;28;20466;-84
2023/05/26 10:35:55;;;;;;;12.13;4.40;;;19.20;79.20;;;;;;5060893;28;20769;-84
2023/05/26 10:38:27;;;;;;;14.83;4.70;;;19.20;79.20;;;;;;5060867;28;20727;-84
2023/05/26 10:40:55;;;;;;;10.07;4.80;;;19.30;79.40;;;;;;5060889;28;20452;-83
2023/05/26 10:43:25;;;;;;;14.00;4.87;;;19.30;79.40;;;;;;5060865;28;20528;-85
2023/05/26 10:45:55;;;;;;;11.63;4.87;;;19.30;79.40;;;;;;5044294;28;20419;-84
2023/05/26 10:48:25;;;;;;;14.13;5.00;;;19.40;79.40;;;;;;5044232;28;20434;-84
2023/05/26 10:50:58;;;;;;;10.47;4.40;;;19.40;79.30;;;;;;5077357;28;20425;-84
2023/05/26 10:53:32;;;;;;;11.70;4.60;;;19.40;79.20;;;;;;5044308;28;20435;-84
2023/05/26 10:56:03;;;;;;;16.17;5.30;;;19.50;79.20;;;;;;5060945;28;20410;-84
2023/05/26 10:58:31;;;;;;;12.57;4.90;;;19.50;79.10;;;;;;5060597;28;20511;-84
2023/05/26 11:01:07;;;;;;;13.23;5.33;;;19.60;79.20;;;;;;5077993;28;20457;-83
2023/05/26 11:03:36;;;;;;;12.93;5.40;;;19.60;79.20;;;;;;5060683;28;20441;-84
2023/05/26 11:06:06;;;;;;;14.17;5.07;;;19.60;79.20;;;;;;5044031;28;20435;-82
2023/05/26 11:08:40;;;;;;;11.63;4.97;;;19.70;79.20;;;;;;5043807;28;20482;-85
2023/05/26 11:11:10;;;;;;;11.77;4.30;;;19.70;80.00;;;;;;5060406;28;20439;-82
2023/05/26 11:13:40;;;;;;;14.30;5.53;;;19.70;79.10;;;;;;5043376;28;20526;-83
2023/05/26 11:16:11;;;;;;;13.20;4.27;;;19.80;79.20;;;;;;5059987;28;20834;-85
2023/05/26 11:18:45;;;;;;;14.90;5.73;;;19.80;79.10;;;;;;5043812;28;20494;-84
2023/05/26 11:21:12;;;;;;;12.93;5.07;;;19.90;79.00;;;;;;5043560;28;20762;-86
2023/05/26 11:23:38;;;;;;;14.30;4.67;;;19.90;79.00;;;;;;5060158;28;20421;-86
2023/05/26 11:26:17;;;;;;;9.53;4.83;;;19.90;79.70;;;;;;5060088;28;20425;-84
2023/05/26 11:28:48;;;;;;;18.80;5.50;;;20.00;78.90;;;;;;5060082;28;20434;-84
2023/05/26 11:31:16;;;;;;;11.33;4.40;;;20.00;78.60;;;;;;5060237;28;20460;-85
2023/05/26 11:33:48;;;;;;;11.93;4.97;;;20.00;78.50;;;;;;5027587;28;20430;-85
2023/05/26 11:36:23;;;;;;;11.50;4.40;;;20.10;78.60;;;;;;5059843;28;20461;-84
2023/05/26 11:38:57;;;;;;;15.37;5.80;;;20.10;78.60;;;;;;5059795;28;20821;-85
2023/05/26 11:41:25;;;;;;;14.50;4.80;;;20.10;78.50;;;;;;5042842;28;20432;-83
2023/05/26 11:43:57;;;;;;;15.53;5.97;;;20.10;78.50;;;;;;5075795;28;20458;-85
2023/05/26 11:46:30;;;;;;;12.37;4.43;;;20.20;78.50;;;;;;5043131;28;20440;-83
2023/05/26 11:48:56;;;;;;;13.00;5.00;;;20.20;78.50;;;;;;5043143;28;20478;-84
2023/05/26 11:51:22;;;;;;;11.57;4.53;;;20.20;78.30;;;;;;5042792;28;20497;-84
2023/05/26 11:53:53;;;;;;;12.53;4.77;;;20.30;78.30;;;;;;5059629;28;20169;-84
2023/05/26 11:56:33;;;;;;;15.37;5.20;;;20.30;78.30;;;;;;5059377;28;20448;-84
2023/05/26 11:59:00;;;;;;;12.83;5.50;;;20.30;78.20;;;;;;5026215;28;20920;-83
2023/05/26 12:01:30;;;;;;;9.00;4.60;;;20.40;78.30;;;;;;5042708;28;20420;-83
2023/05/26 12:03:59;;;;;;;13.53;5.87;;;20.40;78.20;;;;;;5059419;28;20407;-84
2023/05/26 12:06:30;;;;;;;11.83;4.47;;;20.40;78.10;;;;;;5059313;28;20455;-84
2023/05/26 12:09:00;;;;;;;11.00;5.10;;;20.50;78.10;;;;;;5059501;28;20432;-83
2023/05/26 12:11:31;;;;;;;12.13;5.03;;;20.50;77.80;;;;;;5059307;28;20466;-83
2023/05/26 12:14:10;;;;;;;11.67;4.47;;;20.50;77.80;;;;;;5042988;28;20393;-85
2023/05/26 12:16:41;;;;;;;10.67;4.67;;;20.60;77.90;;;;;;5059280;28;20432;-87
2023/05/26 12:19:12;;;;;;;8.73;5.13;;;20.60;77.80;;;;;;5076727;28;20854;-87
2023/05/26 12:21:44;;;;;;;9.33;4.33;;;20.60;77.70;;;;;;5058857;28;20470;-83
2023/05/26 12:24:11;;;;;;;14.97;4.30;;;20.60;77.60;;;;;;5042539;28;20457;-83
2023/05/26 12:26:37;;;;;;;13.77;4.93;;;20.70;77.60;;;;;;5075650;28;20425;-84
2023/05/26 12:29:18;;;;;;;13.87;5.00;;;20.70;77.40;;;;;;5028115;28;20476;-83
2023/05/26 12:31:48;;;;;;;6.60;3.77;;;20.80;77.30;;;;;;5056199;28;20477;-86
2023/05/26 12:34:18;;;;;;;10.67;4.33;;;20.80;77.10;;;;;;5038677;28;20888;-86
2023/05/26 12:36:45;;;;;;;11.90;4.77;;;20.80;76.90;;;;;;5038696;28;20398;-84
2023/05/26 12:39:14;;;;;;;13.90;4.90;;;20.80;76.60;;;;;;5022734;28;20479;-85
2023/05/26 12:41:40;;;;;;;13.30;5.00;;;20.90;76.50;;;;;;5038763;28;20488;-86
2023/05/26 12:44:07;;;;;;;11.27;4.40;;;20.90;76.30;;;;;;5038535;28;20432;-83
2023/05/26 12:46:42;;;;;;;12.87;5.00;;;21.00;76.50;;;;;;5022612;28;20455;-88
2023/05/26 12:49:10;;;;;;;11.00;4.60;;;21.00;76.10;;;;;;5022173;28;20444;-84